Polo, Missouri
Current Conditions -  °F | °C
As of 11:35 AM on Thursday 23 Oct 2014 (Local Time) from KGPH Reporting Station
Overcast Overcast  
Wind Chill: 61°   Ceiling: 900
Heat Index: 61°   Visibility: 10mi
Dew Point: 59°   Wind: 7mph
Humidity: 94%   Direction: 170°S
Pressure: 30.11"   Gusts: NA
Location:  39.55°N, 94.04°W
Report Text: KGPH 231635Z AUTO 17006KT 10SM OVC009 16/15 A3011 RMK AO2
Loading
Personal Weather Stations






























Interactive Weather Map
Tropical Storm Tracking
New forecast layout! Learn more

10-Day Weather Forecast

Advertisements
Track Severe Weather on mobile